createdAt,value
2023-09-26T04:01:19.564Z,13.20
2023-09-26T04:04:41.960Z,13.30
2023-09-26T04:08:04.434Z,13.30
2023-09-26T04:11:26.629Z,13.30
2023-09-26T04:14:48.742Z,13.30
2023-09-26T04:18:11.110Z,13.30
2023-09-26T04:21:33.255Z,13.30
2023-09-26T04:24:55.451Z,13.40
2023-09-26T04:28:17.633Z,13.40
2023-09-26T04:31:39.990Z,13.40
2023-09-26T04:35:02.440Z,13.40
2023-09-26T04:38:25.083Z,13.40
2023-09-26T04:41:47.385Z,13.40
2023-09-26T04:45:09.891Z,13.30
2023-09-26T04:48:32.153Z,13.30
2023-09-26T04:51:54.285Z,13.30
2023-09-26T04:55:17.112Z,13.30
2023-09-26T04:58:39.549Z,13.30
2023-09-26T05:02:01.810Z,13.40
2023-09-26T05:05:25.439Z,13.50
2023-09-26T05:08:47.501Z,13.70
2023-09-26T05:12:09.620Z,13.70
2023-09-26T05:15:35.117Z,13.70
2023-09-26T05:18:57.330Z,13.70
2023-09-26T05:22:19.519Z,13.80
2023-09-26T05:25:41.722Z,13.90
2023-09-26T05:29:04.060Z,13.90
2023-09-26T05:32:26.429Z,13.90
2023-09-26T05:35:48.582Z,14.00
2023-09-26T05:39:10.969Z,14.10
2023-09-26T05:42:33.443Z,14.20
2023-09-26T05:45:55.618Z,14.40
2023-09-26T05:49:17.877Z,14.50
2023-09-26T05:52:40.124Z,14.80
2023-09-26T05:56:03.253Z,15.10
2023-09-26T05:59:25.483Z,15.30
2023-09-26T06:02:47.802Z,15.70
2023-09-26T06:06:10.067Z,16.00
2023-09-26T06:09:32.188Z,16.30
2023-09-26T06:12:55.638Z,17.40
2023-09-26T06:16:18.008Z,19.20
2023-09-26T06:19:46.165Z,20.90
2023-09-26T06:23:08.319Z,22.00
2023-09-26T06:26:30.474Z,23.30
2023-09-26T06:29:52.633Z,24.30
2023-09-26T06:33:14.935Z,25.40
2023-09-26T06:36:38.485Z,26.50
2023-09-26T06:40:05.343Z,27.10
2023-09-26T06:43:27.886Z,27.60
2023-09-26T06:46:50.965Z,27.60
2023-09-26T06:50:13.741Z,27.80
2023-09-26T06:53:37.318Z,28.50
2023-09-26T06:56:59.905Z,29.50
2023-09-26T07:00:26.107Z,30.30
2023-09-26T07:03:48.686Z,30.90
2023-09-26T07:07:10.967Z,31.20
2023-09-26T07:10:38.803Z,31.70
2023-09-26T07:14:01.280Z,32.50
2023-09-26T07:17:26.253Z,32.30
2023-09-26T07:20:49.250Z,33.40
2023-09-26T07:24:11.665Z,33.20
2023-09-26T07:27:33.755Z,33.20
2023-09-26T07:30:56.267Z,33.60
2023-09-26T07:34:18.747Z,34.00
2023-09-26T07:38:01.090Z,34.00
2023-09-26T07:41:25.585Z,34.20
2023-09-26T07:44:50.132Z,34.20
2023-09-26T07:48:17.469Z,34.10
2023-09-26T07:52:08.292Z,34.40
2023-09-26T07:55:33.348Z,34.70
2023-09-26T07:59:43.442Z,34.40
2023-09-26T08:02:57.604Z,34.50
2023-09-26T08:06:22.457Z,34.90
2023-09-26T08:09:49.086Z,34.80
2023-09-26T08:17:35.722Z,34.80
2023-09-26T08:21:06.414Z,34.80
2023-09-26T08:24:37.861Z,34.90
2023-09-26T08:28:04.017Z,34.50
2023-09-26T08:41:37.422Z,35.00
2023-09-26T08:45:00.763Z,35.30
2023-09-26T08:48:24.188Z,35.70
2023-09-26T08:51:46.875Z,35.80
2023-09-26T08:55:10.303Z,35.70
2023-09-26T08:58:33.899Z,35.90
2023-09-26T09:01:58.089Z,36.10
2023-09-26T09:05:22.306Z,36.20
2023-09-26T09:08:46.296Z,35.70
2023-09-26T09:12:23.816Z,35.60
2023-09-26T09:15:46.264Z,35.20
2023-09-26T09:19:08.871Z,34.30
2023-09-26T09:22:31.469Z,34.40
2023-09-26T09:25:54.316Z,34.40
2023-09-26T09:29:24.920Z,34.10
2023-09-26T09:32:47.690Z,34.30
2023-09-26T09:36:10.096Z,34.40
2023-09-26T09:39:32.578Z,34.10
2023-09-26T09:42:55.311Z,33.10
2023-09-26T09:46:18.783Z,33.70
2023-09-26T09:49:46.964Z,33.90
2023-09-26T09:53:15.538Z,33.50
2023-09-26T09:56:40.576Z,33.30
2023-09-26T10:00:06.961Z,33.60
2023-09-26T10:03:30.440Z,33.60
2023-09-26T10:06:55.107Z,34.10
2023-09-26T10:10:22.252Z,34.50
2023-09-26T10:13:45.281Z,34.60
2023-09-26T10:17:08.500Z,34.90
2023-09-26T10:20:49.359Z,34.70
2023-09-26T10:24:14.544Z,35.00
2023-09-26T10:27:51.696Z,34.40
2023-09-26T10:31:20.000Z,34.00
2023-09-26T10:34:53.701Z,34.10
2023-09-26T10:38:36.010Z,34.30
2023-09-26T10:55:58.340Z,32.00
2023-09-26T11:00:30.316Z,32.40
2023-09-26T11:04:04.406Z,32.90
2023-09-26T11:07:31.184Z,32.90
2023-09-26T11:11:31.116Z,33.10
2023-09-26T11:24:20.769Z,32.50
2023-09-26T11:27:49.352Z,32.30
2023-09-26T11:31:17.063Z,32.10
2023-09-26T11:34:46.324Z,32.10
2023-09-26T11:38:13.425Z,31.80
2023-09-26T11:41:47.781Z,31.20
2023-09-26T11:45:21.793Z,30.60
2023-09-26T11:48:46.503Z,30.80
2023-09-26T11:52:09.828Z,30.60
2023-09-26T11:55:32.819Z,30.50
2023-09-26T11:58:55.103Z,30.80
2023-09-26T12:02:17.520Z,31.10
2023-09-26T12:05:44.446Z,31.20
2023-09-26T12:09:19.489Z,31.10
2023-09-26T12:12:47.873Z,30.60
2023-09-26T12:16:19.890Z,30.30
2023-09-26T12:19:46.251Z,30.20
2023-09-26T12:23:15.379Z,30.40
2023-09-26T12:26:41.526Z,30.50
2023-09-26T12:30:04.603Z,30.70
2023-09-26T12:33:27.872Z,30.80
2023-09-26T12:37:02.512Z,30.70
2023-09-26T12:40:57.139Z,30.50
2023-09-26T12:44:48.193Z,30.50
2023-09-26T12:48:16.773Z,30.50
2023-09-26T12:51:49.688Z,30.50
2023-09-26T12:55:15.290Z,30.40
2023-09-26T12:58:38.298Z,30.50
2023-09-26T13:02:07.875Z,30.60
2023-09-26T13:05:34.569Z,30.60
2023-09-26T13:08:58.100Z,30.60
2023-09-26T13:12:36.099Z,30.60
2023-09-26T13:16:12.459Z,30.30
2023-09-26T13:19:42.462Z,30.40
2023-09-26T13:23:15.399Z,30.50
2023-09-26T13:26:38.380Z,30.50
2023-09-26T13:30:01.159Z,30.40
2023-09-26T13:33:24.861Z,30.30
2023-09-26T13:36:54.259Z,30.40
2023-09-26T13:40:16.816Z,30.20
2023-09-26T13:43:48.305Z,29.90
2023-09-26T13:47:23.370Z,29.90
2023-09-26T13:50:49.961Z,29.90
2023-09-26T13:54:17.606Z,30.00
2023-09-26T13:57:41.264Z,29.90
2023-09-26T14:01:40.680Z,29.80
2023-09-26T14:08:47.518Z,29.70
2023-09-26T14:12:10.451Z,29.60
2023-09-26T14:15:41.138Z,29.60
2023-09-26T14:19:27.648Z,29.50
2023-09-26T14:22:49.899Z,29.50
2023-09-26T14:26:13.416Z,29.40
2023-09-26T14:29:35.511Z,29.50
2023-09-26T14:32:58.866Z,29.40
2023-09-26T14:36:25.469Z,29.20
2023-09-26T14:39:48.735Z,29.10
2023-09-26T14:43:12.257Z,29.00
2023-09-26T14:46:37.812Z,28.90
2023-09-26T14:50:02.058Z,28.80
2023-09-26T14:53:28.073Z,28.70
2023-09-26T14:57:00.505Z,28.50
2023-09-26T15:00:24.317Z,28.20
2023-09-26T15:03:47.889Z,28.00
2023-09-26T15:07:11.347Z,27.80
2023-09-26T15:10:35.283Z,27.70
2023-09-26T15:14:02.461Z,27.60
2023-09-26T15:17:24.892Z,27.40
2023-09-26T15:20:46.967Z,27.30
2023-09-26T15:24:09.106Z,27.20
2023-09-26T15:27:31.128Z,27.00
2023-09-26T15:30:53.330Z,26.90
2023-09-26T15:34:16.045Z,26.80
2023-09-26T15:37:38.067Z,26.50
2023-09-26T15:41:18.527Z,26.40
2023-09-26T15:44:41.711Z,26.40
2023-09-26T15:48:04.785Z,26.30
2023-09-26T15:51:26.962Z,26.20
2023-09-26T15:55:00.911Z,26.10
2023-09-26T15:58:24.545Z,26.00
2023-09-26T16:01:51.194Z,25.90
2023-09-26T16:05:18.285Z,25.80
2023-09-26T16:08:47.890Z,25.70
2023-09-26T16:12:12.159Z,25.60
2023-09-26T16:15:35.987Z,25.50
2023-09-26T16:18:59.211Z,25.40
2023-09-26T16:22:24.088Z,25.30
2023-09-26T16:25:47.580Z,25.10
2023-09-26T16:29:11.364Z,25.00
2023-09-26T16:32:35.051Z,24.80
2023-09-26T16:36:00.511Z,24.70
2023-09-26T16:39:26.182Z,24.50
2023-09-26T16:42:49.594Z,24.30
2023-09-26T16:46:12.808Z,24.20
2023-09-26T16:49:35.854Z,24.00
2023-09-26T16:52:58.920Z,23.80
2023-09-26T16:56:26.072Z,23.60
2023-09-26T16:59:50.921Z,23.40
2023-09-26T17:03:14.210Z,23.30
2023-09-26T17:06:37.053Z,23.10
2023-09-26T17:09:59.150Z,22.80
2023-09-26T17:13:47.049Z,22.60
2023-09-26T17:17:15.700Z,22.50
2023-09-26T17:20:39.103Z,22.40
2023-09-26T17:24:24.056Z,22.40
2023-09-26T17:28:08.982Z,22.30
2023-09-26T17:31:36.507Z,22.30
2023-09-26T17:35:04.248Z,22.30
2023-09-26T17:43:14.196Z,22.10
2023-09-26T17:46:46.697Z,22.00
2023-09-26T17:54:05.714Z,21.60
2023-09-26T17:58:03.210Z,21.40
2023-09-26T18:01:41.801Z,21.40
2023-09-26T18:05:35.921Z,21.30
2023-09-26T18:13:57.606Z,21.10
2023-09-26T18:35:01.783Z,20.60
2023-09-26T18:38:57.100Z,20.50
2023-09-26T18:42:46.873Z,20.50
2023-09-26T18:46:20.791Z,20.40
2023-09-26T18:49:43.887Z,20.30
2023-09-26T18:53:08.057Z,20.20
2023-09-26T18:56:32.778Z,20.10
2023-09-26T19:00:31.840Z,20.10
2023-09-26T19:05:00.918Z,20.10
2023-09-26T19:23:02.155Z,19.90
2023-09-26T19:26:28.721Z,19.90
2023-09-26T19:29:52.460Z,19.90
2023-09-26T19:33:15.438Z,19.90
2023-09-26T19:36:48.169Z,19.90
2023-09-26T19:40:10.862Z,19.80
2023-09-26T19:43:34.304Z,19.80
2023-09-26T19:46:58.176Z,19.70
2023-09-26T19:50:23.446Z,19.70
2023-09-26T19:53:48.851Z,19.70
2023-09-26T19:57:12.318Z,19.70
2023-09-26T20:00:54.213Z,19.70
2023-09-26T20:04:18.671Z,19.70
2023-09-26T20:07:42.343Z,19.70
2023-09-26T20:11:04.965Z,19.70
2023-09-26T20:14:33.200Z,19.70
2023-09-26T20:17:56.230Z,19.60
2023-09-26T20:21:22.112Z,19.60
2023-09-26T20:28:37.112Z,19.50
2023-09-26T20:32:00.057Z,19.60
2023-09-26T20:35:22.518Z,19.60
2023-09-26T20:38:44.799Z,19.60
2023-09-26T20:42:07.857Z,19.50
2023-09-26T20:45:30.610Z,19.50
2023-09-26T20:48:54.281Z,19.50
2023-09-26T20:52:16.594Z,19.50
2023-09-26T20:55:39.067Z,19.40
2023-09-26T20:59:01.488Z,19.40
2023-09-26T21:02:24.041Z,19.40
2023-09-26T21:05:47.317Z,19.30
2023-09-26T21:09:10.760Z,19.30
2023-09-26T21:12:32.963Z,19.30
2023-09-26T21:16:14.060Z,19.30
2023-09-26T21:19:36.292Z,19.30
2023-09-26T21:22:58.555Z,19.30
2023-09-26T21:26:22.119Z,19.40
2023-09-26T21:29:47.326Z,19.50
2023-09-26T21:33:10.403Z,19.50
2023-09-26T21:36:32.825Z,19.50
2023-09-26T21:40:01.737Z,19.50
2023-09-26T21:43:24.238Z,19.40
2023-09-26T21:46:46.489Z,19.30
2023-09-26T21:50:08.814Z,19.30
2023-09-26T21:53:32.156Z,19.20
2023-09-26T21:56:54.307Z,19.10
2023-09-26T22:00:24.149Z,19.00
2023-09-26T22:03:46.271Z,18.90
2023-09-26T22:07:09.019Z,18.80
2023-09-26T22:10:31.111Z,18.70
2023-09-26T22:13:53.375Z,18.60
2023-09-26T22:17:15.993Z,18.60
2023-09-26T22:20:39.093Z,18.50
2023-09-26T22:24:01.128Z,18.50
2023-09-26T22:27:23.268Z,18.40
